Terminal Aerodrome Forecast
Issued by NWS

Home | Current Version | Previous Version | Text Only | Print | Product List | Glossary On
Versions: 1 2 3 4 5 6 7 8 9 10 11 12 13 14
978
FTUS43 KICT 172337
TAFCNU
TAF
KCNU 172337Z 1800/1824 20014KT P6SM FEW250
     FM180900 23015G23KT P6SM BKN025
     FM181300 33025G33KT P6SM BKN020
     FM181600 33026G34KT P6SM BKN040
     FM182200 33018KT P6SM SKC=

USA.gov is the U.S. government's official web portal to all federal, state and local government web resources and services.